Webcam

2021/05/16 01:20 EBBR 160120Z 21008KT CAVOK 08/06 Q1001 NOSIG

Webcam

--- Refresh now ---